Time;durP1;ratioP1;P1;durP2;ratioP2;P2;SDS_P1;SDS_P2;PMS_P1;PMS_P2;Temp;Humidity;BMP_temperature;BMP_pressure;BME280_temperature;BME280_humidity;BME280_pressure;Samples;Min_cycle;Max_cycle;Signal;HPM_P1;HPM_P2
2022/01/15 00:00:08;;;;;;;48.83;18.60;;;;;;;0.15;100.00;102508.03;832224;23;891;-52
2022/01/15 00:00:36;;;;;;;44.50;17.85;;;;;;;0.13;100.00;102506.13;830902;23;693;-52
2022/01/15 00:00:56;;;;;;;43.45;17.83;;;;;;;0.16;100.00;102508.91;833953;23;958;-52
2022/01/15 00:01:16;;;;;;;41.07;17.27;;;;;;;0.18;100.00;102512.50;837557;23;4232;-51
2022/01/15 00:01:37;;;;;;;44.85;17.95;;;;;;;0.22;100.00;102511.00;840193;23;737;-52
2022/01/15 00:01:57;;;;;;;45.87;18.10;;;;;;;0.22;100.00;102511.00;841041;23;879;-51
2022/01/15 00:02:18;;;;;;;45.38;18.40;;;;;;;0.21;100.00;102509.22;840829;23;775;-51
2022/01/15 00:02:39;;;;;;;45.35;18.52;;;;;;;0.17;100.00;102503.88;840172;23;880;-53
2022/01/15 00:02:59;;;;;;;46.23;18.47;;;;;;;0.16;100.00;102508.91;839949;23;919;-53
2022/01/15 00:03:20;;;;;;;44.20;17.98;;;;;;;0.16;100.00;102512.38;840590;23;974;-50
2022/01/15 00:03:40;;;;;;;44.00;18.08;;;;;;;0.14;100.00;102508.81;840556;23;1050;-53
2022/01/15 00:04:01;;;;;;;44.13;18.27;;;;;;;0.13;100.00;102503.56;840863;23;829;-53
2022/01/15 00:04:21;;;;;;;43.05;17.83;;;;;;;0.12;100.00;102506.91;838994;23;4279;-51
2022/01/15 00:04:41;;;;;;;44.60;17.70;;;;;;;0.15;100.00;102513.19;840425;23;936;-50
2022/01/15 00:05:02;;;;;;;44.90;18.67;;;;;;;0.14;100.00;102510.50;840583;23;825;-52
2022/01/15 00:05:22;;;;;;;43.50;18.00;;;;;;;0.14;100.00;102511.38;839507;23;769;-56
2022/01/15 00:05:43;;;;;;;41.88;17.42;;;;;;;0.14;100.00;102510.50;834636;23;781;-52
2022/01/15 00:06:03;;;;;;;45.43;17.47;;;;;;;0.15;100.00;102507.13;836064;23;734;-51
2022/01/15 00:06:24;;;;;;;47.95;18.20;;;;;;;0.13;100.00;102511.28;834493;23;758;-52
2022/01/15 00:06:44;;;;;;;47.73;18.70;;;;;;;0.12;100.00;102505.22;835782;23;860;-51
2022/01/15 00:07:04;;;;;;;46.33;18.77;;;;;;;0.13;100.00;102512.16;836111;23;762;-52
2022/01/15 00:07:25;;;;;;;44.10;17.93;;;;;;;0.14;100.00;102510.50;834573;23;5153;-51
2022/01/15 00:07:47;;;;;;;42.60;17.80;;;;;;;0.12;100.00;102504.34;836168;23;784;-52
2022/01/15 00:08:08;;;;;;;42.83;18.38;;;;;;;0.10;100.00;102503.38;836047;23;991;-51
2022/01/15 00:08:28;;;;;;;43.08;18.00;;;;;;;0.13;100.00;102503.56;836099;23;979;-52
2022/01/15 00:08:49;;;;;;;44.53;17.87;;;;;;;0.20;100.00;102507.44;836347;23;904;-52
2022/01/15 00:09:09;;;;;;;42.38;17.77;;;;;;;0.18;100.00;102502.22;834590;23;1344;-51
2022/01/15 00:09:29;;;;;;;40.90;17.53;;;;;;;0.19;100.00;102503.09;836408;23;837;-53
2022/01/15 00:09:50;;;;;;;40.15;17.00;;;;;;;0.19;100.00;102503.97;836422;23;749;-53
2022/01/15 00:10:11;;;;;;;44.90;17.80;;;;;;;0.20;100.00;102503.19;835831;23;4319;-51
2022/01/15 00:10:32;;;;;;;42.92;17.67;;;;;;;0.18;100.00;102507.34;836322;23;1057;-51
2022/01/15 00:10:52;;;;;;;42.47;17.05;;;;;;;0.17;100.00;102503.00;837128;23;940;-52
2022/01/15 00:11:13;;;;;;;40.45;17.25;;;;;;;0.17;100.00;102505.56;839770;23;789;-52
2022/01/15 00:11:34;;;;;;;43.07;17.17;;;;;;;0.15;100.00;102502.88;840327;23;772;-51
2022/01/15 00:11:55;;;;;;;41.28;17.60;;;;;;;0.15;100.00;102510.59;839190;23;1344;-59
2022/01/15 00:12:15;;;;;;;42.53;17.92;;;;;;;0.14;100.00;102508.81;840225;23;868;-52
2022/01/15 00:12:40;;;;;;;43.47;18.13;;;;;;;0.11;100.00;102516.34;840156;23;775;-51
2022/01/15 00:13:02;;;;;;;41.10;17.58;;;;;;;0.19;100.00;102508.22;840677;23;872;-51
2022/01/15 00:13:28;;;;;;;41.47;17.23;;;;;;;0.17;100.00;102511.59;838010;23;4298;-51
2022/01/15 00:14:11;;;;;;;40.20;17.55;;;;;;;0.15;100.00;102512.25;835909;23;1901;-50
2022/01/15 00:14:36;;;;;;;37.13;16.92;;;;;;;0.12;100.00;102501.78;835470;23;1887;-51
2022/01/15 00:14:57;;;;;;;37.53;16.67;;;;;;;0.14;100.00;102505.38;836621;23;964;-52
2022/01/15 00:15:26;;;;;;;39.93;16.37;;;;;;;0.14;100.00;102510.50;835647;23;952;-52
2022/01/15 00:15:52;;;;;;;39.78;16.67;;;;;;;0.10;100.00;102508.50;839900;23;907;-52
2022/01/15 00:16:26;;;;;;;38.97;16.77;;;;;;;0.09;100.00;102506.72;835783;23;4341;-51
2022/01/15 00:16:56;;;;;;;39.90;16.17;;;;;;;0.05;100.00;102510.75;835782;23;872;-55
2022/01/15 00:17:31;;;;;;;39.33;16.58;;;;;;;0.03;100.00;102509.78;836183;23;904;-52
2022/01/15 00:18:05;;;;;;;39.85;17.08;;;;;;;0.01;100.00;102503.63;836087;23;939;-52
2022/01/15 00:18:39;;;;;;;41.22;17.30;;;;;;;0.02;100.00;102507.97;840649;23;883;-54
2022/01/15 00:19:31;;;;;;;38.70;16.40;;;;;;;0.04;100.00;102510.66;838507;23;4207;-51
2022/01/15 00:19:51;;;;;;;39.75;16.95;;;;;;;0.00;100.00;102501.84;837994;23;940;-50
2022/01/15 00:20:16;;;;;;;40.78;16.70;;;;;;;-0.03;100.00;102507.69;840761;23;844;-51
2022/01/15 00:20:36;;;;;;;37.10;15.32;;;;;;;0.07;100.00;102510.84;839926;23;928;-52
2022/01/15 00:20:57;;;;;;;37.97;15.73;;;;;;;0.17;100.00;102505.56;840458;23;829;-50
2022/01/15 00:21:17;;;;;;;36.33;15.97;;;;;;;0.23;100.00;102500.81;840975;23;900;-50
2022/01/15 00:21:37;;;;;;;36.45;15.80;;;;;;;0.22;100.00;102506.75;839844;23;793;-51
2022/01/15 00:21:58;;;;;;;37.77;15.73;;;;;;;0.19;100.00;102503.97;840269;23;893;-51
2022/01/15 00:22:19;;;;;;;38.90;16.17;;;;;;;0.14;100.00;102505.38;838662;23;4446;-51
2022/01/15 00:22:39;;;;;;;39.25;16.02;;;;;;;0.10;100.00;102506.81;838532;23;845;-52
2022/01/15 00:22:59;;;;;;;37.10;15.30;;;;;;;0.09;100.00;102507.59;840268;23;868;-52
2022/01/15 00:23:20;;;;;;;35.50;15.25;;;;;;;0.09;100.00;102499.88;840699;23;750;-54
2022/01/15 00:23:41;;;;;;;32.50;15.00;;;;;;;0.05;100.00;102508.19;835162;23;1201;-50
2022/01/15 00:24:02;;;;;;;33.95;15.43;;;;;;;0.03;100.00;102511.44;836048;23;928;-53
2022/01/15 00:24:24;;;;;;;34.72;15.25;;;;;;;0.02;100.00;102501.97;836516;23;852;-51
2022/01/15 00:24:46;;;;;;;36.65;15.38;;;;;;;0.02;100.00;102507.09;836044;23;813;-50
2022/01/15 00:25:07;;;;;;;36.85;15.68;;;;;;;0.02;100.00;102502.84;836243;23;618;-52
2022/01/15 00:25:29;;;;;;;37.22;15.55;;;;;;;-0.03;100.00;102502.53;834987;23;4145;-50
2022/01/15 00:25:49;;;;;;;38.05;16.17;;;;;;;-0.01;100.00;102508.66;839720;23;852;-50
2022/01/15 00:26:10;;;;;;;35.70;15.77;;;;;;;-0.03;100.00;102509.34;841166;23;793;-51
2022/01/15 00:26:30;;;;;;;34.08;15.43;;;;;;;-0.04;100.00;102505.88;840844;23;876;-52
2022/01/15 00:26:51;;;;;;;34.63;15.60;;;;;;;-0.07;100.00;102503.13;840649;23;678;-51
2022/01/15 00:27:12;;;;;;;35.60;15.27;;;;;;;-0.09;100.00;102504.66;840810;23;884;-51
2022/01/15 00:27:32;;;;;;;33.53;15.23;;;;;;;-0.08;100.00;102503.00;834959;23;864;-52
2022/01/15 00:27:54;;;;;;;34.83;15.27;;;;;;;-0.09;100.00;102506.38;836173;23;951;-54
2022/01/15 00:28:14;;;;;;;35.65;15.10;;;;;;;-0.10;100.00;102502.00;834738;23;4298;-53
2022/01/15 00:28:34;;;;;;;34.70;15.57;;;;;;;-0.09;100.00;102509.81;836386;23;888;-54
2022/01/15 00:28:55;;;;;;;34.33;14.98;;;;;;;-0.08;100.00;102509.03;830816;23;1312;-50
2022/01/15 00:29:15;;;;;;;33.40;14.57;;;;;;;-0.09;100.00;102507.25;832686;23;916;-53
2022/01/15 00:29:37;;;;;;;33.40;15.03;;;;;;;-0.10;100.00;102509.72;834989;23;1516;-52
2022/01/15 00:29:57;;;;;;;34.67;15.07;;;;;;;-0.13;100.00;102505.25;831994;23;977;-52
2022/01/15 00:30:18;;;;;;;33.77;14.90;;;;;;;-0.06;100.00;102510.03;832129;23;943;-52
2022/01/15 00:30:39;;;;;;;33.35;14.30;;;;;;;-0.04;100.00;102505.88;828856;23;927;-51
2022/01/15 00:30:59;;;;;;;34.55;14.93;;;;;;;0.08;100.00;102504.94;832580;23;891;-51
2022/01/15 00:31:20;;;;;;;31.80;15.00;;;;;;;0.04;100.00;102510.66;831193;23;4251;-53
2022/01/15 00:31:40;;;;;;;32.23;14.87;;;;;;;0.01;100.00;102507.88;833082;23;915;-52
2022/01/15 00:32:03;;;;;;;30.23;14.48;;;;;;;0.01;100.00;102508.75;835557;23;711;-51
2022/01/15 00:32:23;;;;;;;32.03;14.45;;;;;;;-0.03;100.00;102510.25;837183;23;773;-53
2022/01/15 00:32:45;;;;;;;32.30;14.05;;;;;;;-0.05;100.00;102504.09;840962;23;904;-56
2022/01/15 00:33:05;;;;;;;35.00;14.73;;;;;;;-0.07;100.00;102515.97;840852;23;1030;-51
2022/01/15 00:33:29;;;;;;;34.63;14.95;;;;;;;-0.09;100.00;102509.81;839899;23;718;-53
2022/01/15 00:33:50;;;;;;;33.28;14.40;;;;;;;-0.09;100.00;102503.78;840370;23;1942;-54
2022/01/15 00:34:10;;;;;;;34.25;14.85;;;;;;;-0.07;100.00;102510.81;838860;23;4459;-52
2022/01/15 00:34:31;;;;;;;32.27;14.23;;;;;;;-0.10;100.00;102509.72;839740;23;860;-52
2022/01/15 00:34:51;;;;;;;32.75;14.48;;;;;;;-0.12;100.00;102509.63;840678;23;809;-54
2022/01/15 00:35:14;;;;;;;34.53;14.57;;;;;;;-0.13;100.00;102500.09;840777;23;860;-51
2022/01/15 00:35:37;;;;;;;33.47;14.73;;;;;;;-0.10;100.00;102505.44;840127;23;974;-53
2022/01/15 00:35:58;;;;;;;31.75;14.43;;;;;;;-0.11;100.00;102503.69;840830;23;959;-52
2022/01/15 00:36:19;;;;;;;32.53;14.85;;;;;;;-0.13;100.00;102502.69;835930;23;769;-53
2022/01/15 00:36:40;;;;;;;32.10;14.70;;;;;;;-0.13;100.00;102505.25;836027;23;777;-53
2022/01/15 00:37:00;;;;;;;31.87;14.63;;;;;;;-0.14;100.00;102505.16;836225;23;956;-52
2022/01/15 00:37:20;;;;;;;32.88;15.48;;;;;;;-0.14;100.00;102502.59;833324;23;4316;-51
2022/01/15 00:37:42;;;;;;;30.87;14.70;;;;;;;-0.15;100.00;102506.84;835821;23;883;-52
2022/01/15 00:38:03;;;;;;;32.63;14.35;;;;;;;-0.17;100.00;102508.41;837453;23;714;-54
2022/01/15 00:38:24;;;;;;;29.95;14.30;;;;;;;-0.16;100.00;102505.03;839729;23;606;-54
2022/01/15 00:38:45;;;;;;;29.55;14.45;;;;;;;-0.15;100.00;102503.34;840214;23;891;-51
2022/01/15 00:39:05;;;;;;;29.58;14.30;;;;;;;-0.15;100.00;102506.84;840514;23;719;-51
2022/01/15 00:39:26;;;;;;;29.90;14.20;;;;;;;-0.18;100.00;102504.94;840144;23;979;-52
2022/01/15 00:39:46;;;;;;;27.77;13.57;;;;;;;-0.18;100.00;102506.59;840569;23;880;-53
2022/01/15 00:40:10;;;;;;;27.97;13.73;;;;;;;-0.18;100.00;102498.91;840203;23;853;-51
2022/01/15 00:40:30;;;;;;;31.30;14.25;;;;;;;-0.18;100.00;102501.47;837463;23;4783;-52
2022/01/15 00:40:50;;;;;;;30.03;14.07;;;;;;;-0.21;100.00;102499.59;840362;23;772;-54
2022/01/15 00:41:12;;;;;;;29.30;13.95;;;;;;;-0.22;100.00;102505.53;835261;23;1587;-51
2022/01/15 00:41:32;;;;;;;28.83;14.18;;;;;;;-0.13;100.00;102512.09;836508;23;908;-53
2022/01/15 00:41:53;;;;;;;29.63;14.13;;;;;;;-0.18;100.00;102501.47;835163;23;760;-54
2022/01/15 00:42:14;;;;;;;27.10;13.93;;;;;;;-0.20;100.00;102496.22;835883;23;967;-52
2022/01/15 00:42:36;;;;;;;28.05;13.65;;;;;;;-0.22;100.00;102499.50;835729;23;924;-53
2022/01/15 00:42:57;;;;;;;28.00;13.65;;;;;;;-0.18;100.00;102501.47;837229;23;995;-57
2022/01/15 00:43:18;;;;;;;27.10;12.98;;;;;;;-0.14;100.00;102500.00;838781;23;4290;-54
2022/01/15 00:43:40;;;;;;;27.88;13.27;;;;;;;-0.14;100.00;102503.47;838677;23;878;-52
2022/01/15 00:44:00;;;;;;;27.80;13.60;;;;;;;-0.16;100.00;102494.75;838726;23;1828;-52
2022/01/15 00:44:21;;;;;;;26.20;13.10;;;;;;;-0.15;100.00;102495.66;840245;23;812;-52
2022/01/15 00:44:42;;;;;;;27.25;13.45;;;;;;;-0.16;100.00;102494.75;839992;23;875;-55
2022/01/15 00:45:05;;;;;;;27.17;13.57;;;;;;;-0.11;100.00;102500.22;839372;23;958;-51
2022/01/15 00:45:29;;;;;;;27.83;13.60;;;;;;;-0.09;100.00;102501.22;837172;23;919;-52
2022/01/15 00:45:50;;;;;;;27.88;13.82;;;;;;;-0.14;100.00;102492.28;839912;23;907;-51
2022/01/15 00:46:10;;;;;;;26.73;13.07;;;;;;;-0.13;100.00;102494.97;840011;23;4230;-52
2022/01/15 00:46:31;;;;;;;26.20;12.65;;;;;;;-0.11;100.00;102498.56;840930;23;1027;-54
2022/01/15 00:46:51;;;;;;;25.27;12.60;;;;;;;-0.12;100.00;102496.75;840230;23;923;-52
2022/01/15 00:47:12;;;;;;;25.58;12.63;;;;;;;-0.13;100.00;102492.41;839999;23;768;-55
2022/01/15 00:47:32;;;;;;;27.17;13.43;;;;;;;-0.17;100.00;102498.13;840605;23;848;-55
2022/01/15 00:47:53;;;;;;;23.87;12.70;;;;;;;-0.20;100.00;102495.34;840399;23;742;-53
2022/01/15 00:48:14;;;;;;;24.20;12.43;;;;;;;-0.22;100.00;102494.34;840932;23;908;-53
2022/01/15 00:48:34;;;;;;;25.48;12.98;;;;;;;-0.22;100.00;102494.34;836167;23;836;-55
2022/01/15 00:48:55;;;;;;;25.50;12.77;;;;;;;-0.23;100.00;102492.56;836150;23;892;-53
2022/01/15 00:49:15;;;;;;;24.67;12.13;;;;;;;-0.26;100.00;102489.78;834565;23;4342;-52
2022/01/15 00:49:35;;;;;;;24.20;12.73;;;;;;;-0.26;100.00;102493.25;836639;23;903;-53
2022/01/15 00:49:57;;;;;;;27.50;13.48;;;;;;;-0.28;100.00;102481.94;836519;23;939;-50
2022/01/15 00:50:18;;;;;;;24.55;13.13;;;;;;;-0.29;100.00;102502.41;836549;23;896;-52
2022/01/15 00:50:38;;;;;;;23.85;12.77;;;;;;;-0.30;100.00;102490.38;840450;23;808;-52
2022/01/15 00:50:59;;;;;;;23.37;12.60;;;;;;;-0.32;100.00;102489.34;835426;23;896;-52
2022/01/15 00:51:19;;;;;;;22.97;12.10;;;;;;;-0.32;100.00;102486.78;836498;23;1318;-50
2022/01/15 00:51:40;;;;;;;22.80;12.13;;;;;;;-0.32;100.00;102481.66;835978;23;793;-54
2022/01/15 00:52:00;;;;;;;23.80;12.90;;;;;;;-0.30;100.00;102487.81;836311;23;858;-52
2022/01/15 00:52:20;;;;;;;24.67;13.10;;;;;;;-0.30;100.00;102492.94;835137;23;4322;-55
2022/01/15 00:52:42;;;;;;;24.55;12.23;;;;;;;-0.32;100.00;102486.78;837077;23;832;-51
2022/01/15 00:53:02;;;;;;;22.50;11.80;;;;;;;-0.32;100.00;102487.66;838343;23;887;-54
2022/01/15 00:53:22;;;;;;;22.07;11.50;;;;;;;-0.33;100.00;102479.84;840243;23;856;-52
2022/01/15 00:53:43;;;;;;;22.75;12.30;;;;;;;-0.35;100.00;102483.22;839927;23;888;-52
2022/01/15 00:54:03;;;;;;;22.03;12.40;;;;;;;-0.37;100.00;102484.78;840026;23;1901;-51
2022/01/15 00:54:24;;;;;;;22.33;11.88;;;;;;;-0.33;100.00;102485.00;840195;23;943;-51
2022/01/15 00:54:44;;;;;;;19.60;11.13;;;;;;;-0.29;100.00;102487.00;839168;23;816;-52
2022/01/15 00:55:06;;;;;;;21.92;11.93;;;;;;;-0.33;100.00;102480.75;840225;23;955;-53
2022/01/15 00:55:26;;;;;;;21.80;11.98;;;;;;;-0.33;100.00;102487.56;838129;23;4286;-51
2022/01/15 00:55:47;;;;;;;20.88;11.70;;;;;;;-0.35;100.00;102490.94;840465;23;951;-52
2022/01/15 00:56:07;;;;;;;20.73;11.90;;;;;;;-0.35;100.00;102483.22;840572;23;737;-54
2022/01/15 00:56:28;;;;;;;21.03;11.57;;;;;;;-0.32;100.00;102489.34;839322;23;962;-54
2022/01/15 00:56:48;;;;;;;23.67;12.52;;;;;;;-0.32;100.00;102487.66;840621;23;848;-51
2022/01/15 00:57:08;;;;;;;23.63;12.17;;;;;;;-0.31;100.00;102486.88;839370;23;792;-52
2022/01/15 00:57:29;;;;;;;23.48;12.48;;;;;;;-0.30;100.00;102485.22;840222;23;701;-52
2022/01/15 00:57:49;;;;;;;22.50;12.17;;;;;;;-0.31;100.00;102488.56;840526;23;922;-54
2022/01/15 00:58:10;;;;;;;23.33;11.93;;;;;;;-0.36;100.00;102484.00;839674;23;4259;-55
2022/01/15 00:58:30;;;;;;;21.33;11.37;;;;;;;-0.37;100.00;102495.06;839897;23;985;-52
2022/01/15 00:58:52;;;;;;;20.17;10.97;;;;;;;-0.36;100.00;102494.28;840513;23;930;-54
2022/01/15 00:59:14;;;;;;;20.15;11.10;;;;;;;-0.36;100.00;102494.28;840391;23;934;-56
2022/01/15 00:59:34;;;;;;;19.42;10.55;;;;;;;-0.33;100.00;102487.56;840268;23;784;-51
2022/01/15 00:59:54;;;;;;;19.65;10.88;;;;;;;-0.31;100.00;102484.31;839751;23;922;-53
2022/01/15 01:00:18;;;;;;;19.40;10.90;;;;;;;-0.28;100.00;102486.22;840318;23;757;-51
2022/01/15 01:00:39;;;;;;;20.50;11.30;;;;;;;-0.26;100.00;102487.22;840112;23;1030;-51
2022/01/15 01:01:00;;;;;;;20.60;11.32;;;;;;;-0.28;100.00;102487.09;834259;23;793;-53
2022/01/15 01:01:20;;;;;;;19.95;11.00;;;;;;;-0.29;100.00;102485.34;834651;23;4282;-53
2022/01/15 01:01:41;;;;;;;19.70;11.10;;;;;;;-0.29;100.00;102484.41;836385;23;784;-52
2022/01/15 01:02:01;;;;;;;19.15;10.77;;;;;;;-0.31;100.00;102484.31;840768;23;920;-54
2022/01/15 01:02:22;;;;;;;16.67;10.33;;;;;;;-0.29;100.00;102481.84;840525;23;734;-51
2022/01/15 01:02:42;;;;;;;17.80;10.73;;;;;;;-0.29;100.00;102479.28;840406;23;962;-52
2022/01/15 01:03:02;;;;;;;18.37;10.73;;;;;;;-0.28;100.00;102483.63;844842;23;888;-52
2022/01/15 01:03:23;;;;;;;17.80;10.43;;;;;;;-0.29;100.00;102477.63;844937;23;807;-55
2022/01/15 01:03:43;;;;;;;18.73;10.60;;;;;;;-0.26;100.00;102488.09;844569;23;896;-53
2022/01/15 01:04:04;;;;;;;19.42;10.73;;;;;;;-0.26;100.00;102484.66;841431;23;661;-51
2022/01/15 01:04:24;;;;;;;19.53;10.83;;;;;;;-0.27;100.00;102482.88;839574;23;4411;-53
2022/01/15 01:04:45;;;;;;;19.23;10.82;;;;;;;-0.28;100.00;102476.81;841294;23;840;-51
2022/01/15 01:05:06;;;;;;;20.13;11.50;;;;;;;-0.29;100.00;102487.00;841159;23;895;-55
2022/01/15 01:05:27;;;;;;;19.35;11.20;;;;;;;-0.27;100.00;102476.03;840443;23;974;-53
2022/01/15 01:05:47;;;;;;;18.73;10.90;;;;;;;-0.26;100.00;102472.69;840796;23;883;-53
2022/01/15 01:06:07;;;;;;;18.37;10.10;;;;;;;-0.25;100.00;102478.69;841172;23;867;-54
2022/01/15 01:06:28;;;;;;;18.10;9.90;;;;;;;-0.28;100.00;102473.34;840819;23;935;-59
2022/01/15 01:06:48;;;;;;;18.30;10.50;;;;;;;-0.27;100.00;102475.16;835237;23;1330;-54
2022/01/15 01:07:09;;;;;;;18.50;10.77;;;;;;;-0.30;100.00;102475.81;835941;23;4281;-54
2022/01/15 01:07:29;;;;;;;18.17;10.52;;;;;;;-0.29;100.00;102476.72;837054;23;908;-53
2022/01/15 01:07:50;;;;;;;19.02;10.32;;;;;;;-0.29;100.00;102474.13;836071;23;972;-54
2022/01/15 01:08:11;;;;;;;17.50;10.27;;;;;;;-0.29;100.00;102475.06;831000;23;1199;-52
2022/01/15 01:08:31;;;;;;;16.73;10.07;;;;;;;-0.29;100.00;102472.47;831705;23;765;-52
2022/01/15 01:08:51;;;;;;;17.38;10.25;;;;;;;-0.30;100.00;102473.25;836327;23;796;-51
2022/01/15 01:09:12;;;;;;;17.47;10.03;;;;;;;-0.28;100.00;102468.22;836449;23;884;-51
2022/01/15 01:10:48;;;;;;;16.83;9.98;;;;;;;-0.27;100.00;102472.59;839078;23;4237;-52
2022/01/15 01:11:14;;;;;;;17.02;9.88;;;;;;;-0.26;100.00;102469.22;839748;23;1813;-51
2022/01/15 01:11:47;;;;;;;18.42;10.63;;;;;;;-0.27;100.00;102470.88;840489;23;934;-54
2022/01/15 01:12:24;;;;;;;17.13;9.60;;;;;;;-0.24;100.00;102472.78;840952;23;749;-51
2022/01/15 01:20:53;;;;;;;15.93;9.75;;;;;;;-0.22;100.00;102458.38;839616;23;729;-51
2022/01/15 01:22:54;;;;;;;17.17;10.20;;;;;;;-0.27;100.00;102457.16;837332;23;939;-51
2022/01/15 01:23:15;;;;;;;16.52;9.98;;;;;;;-0.30;100.00;102465.53;837829;23;833;-52
2022/01/15 01:23:35;;;;;;;16.60;9.70;;;;;;;-0.32;100.00;102454.25;837149;23;816;-53
2022/01/15 01:23:56;;;;;;;18.00;10.07;;;;;;;-0.30;100.00;102464.66;836471;23;955;-53
2022/01/15 01:24:16;;;;;;;17.88;10.32;;;;;;;-0.33;100.00;102460.22;837482;23;851;-53
2022/01/15 01:24:36;;;;;;;17.10;9.70;;;;;;;-0.31;100.00;102462.88;836820;23;832;-53
2022/01/15 01:24:57;;;;;;;17.55;9.65;;;;;;;-0.32;100.00;102461.09;837804;23;863;-54
2022/01/15 01:25:19;;;;;;;16.90;9.50;;;;;;;-0.31;100.00;102460.31;831900;23;4317;-52
2022/01/15 01:25:44;;;;;;;17.45;9.80;;;;;;;-0.31;100.00;102465.44;834453;23;966;-53
2022/01/15 01:26:30;;;;;;;18.08;10.02;;;;;;;-0.31;100.00;102455.16;838283;23;876;-50
2022/01/15 01:26:53;;;;;;;18.13;10.48;;;;;;;-0.35;100.00;102457.53;835446;23;1603;-51
2022/01/15 01:27:24;;;;;;;19.73;10.50;;;;;;;-0.37;100.00;102450.50;837202;23;851;-53
2022/01/15 01:27:48;;;;;;;18.02;10.45;;;;;;;-0.38;100.00;102457.31;837436;23;943;-54
2022/01/15 01:28:14;;;;;;;18.27;9.93;;;;;;;-0.38;100.00;102456.41;835916;23;4557;-52
2022/01/15 01:28:40;;;;;;;17.80;9.73;;;;;;;-0.38;100.00;102456.41;837204;23;1009;-53
2022/01/15 01:29:12;;;;;;;16.17;9.57;;;;;;;-0.37;100.00;102451.38;836816;23;824;-52
2022/01/15 01:30:08;;;;;;;18.23;10.50;;;;;;;-0.36;100.00;102445.47;837351;23;864;-52
2022/01/15 01:30:35;;;;;;;17.90;10.52;;;;;;;-0.37;100.00;102456.53;838259;23;938;-51
2022/01/15 01:31:13;;;;;;;18.52;10.85;;;;;;;-0.37;100.00;102458.22;837589;23;916;-55
2022/01/15 01:31:51;;;;;;;20.25;10.73;;;;;;;-0.35;100.00;102451.47;831196;23;4655;-51
2022/01/15 01:32:35;;;;;;;20.35;11.18;;;;;;;-0.29;100.00;102456.16;834169;23;896;-53
2022/01/15 01:32:57;;;;;;;19.20;10.82;;;;;;;-0.33;100.00;102456.72;831463;23;965;-51
2022/01/15 01:33:43;;;;;;;20.17;11.07;;;;;;;-0.35;100.00;102452.41;837569;23;864;-55
2022/01/15 01:34:08;;;;;;;20.92;11.38;;;;;;;-0.35;100.00;102451.47;837400;23;1978;-54
2022/01/15 01:34:31;;;;;;;21.75;11.52;;;;;;;-0.36;100.00;102449.69;833979;23;5122;-53
2022/01/15 01:34:52;;;;;;;19.98;11.07;;;;;;;-0.35;100.00;102449.81;835700;23;932;-54
2022/01/15 01:35:18;;;;;;;19.93;10.83;;;;;;;-0.36;100.00;102445.47;837887;23;911;-53
2022/01/15 01:35:43;;;;;;;18.83;10.85;;;;;;;-0.36;100.00;102448.03;835118;23;915;-55
2022/01/15 01:36:22;;;;;;;20.30;10.95;;;;;;;-0.36;100.00;102455.75;832165;23;782;-54
2022/01/15 01:37:35;;;;;;;19.55;11.10;;;;;;;-0.33;100.00;102441.31;830605;23;6078;-55
2022/01/15 01:37:59;;;;;;;20.55;11.32;;;;;;;-0.33;100.00;102446.44;836194;23;931;-53
2022/01/15 01:38:31;;;;;;;20.17;11.55;;;;;;;-0.33;100.00;102454.16;836644;23;1148;-53
2022/01/15 01:38:58;;;;;;;21.30;10.98;;;;;;;-0.36;100.00;102442.91;837246;23;934;-54
2022/01/15 01:39:21;;;;;;;20.35;11.20;;;;;;;-0.32;100.00;102448.22;836983;23;650;-53
2022/01/15 01:40:49;;;;;;;20.02;10.93;;;;;;;-0.30;100.00;102446.69;837718;23;730;-56
2022/01/15 01:40:49;;;;;;;20.40;11.50;;;;;;;-0.26;100.00;102448.66;824523;23;4758;-54
2022/01/15 01:41:15;;;;;;;20.83;10.90;;;;;;;-0.27;100.00;102444.31;837730;23;836;-53
2022/01/15 01:41:36;;;;;;;19.13;10.70;;;;;;;-0.29;100.00;102438.16;837399;23;1224;-52
2022/01/15 01:42:40;;;;;;;20.58;11.25;;;;;;;-0.30;100.00;102442.41;837130;23;947;-53
2022/01/15 01:43:08;;;;;;;21.40;11.32;;;;;;;-0.29;100.00;102439.06;837284;23;796;-54
2022/01/15 01:44:00;;;;;;;19.73;11.27;;;;;;;-0.30;100.00;102433.81;837209;23;765;-51
2022/01/15 01:44:24;;;;;;;20.00;11.35;;;;;;;-0.30;100.00;102433.81;835152;23;939;-55
2022/01/15 01:45:10;;;;;;;20.00;11.05;;;;;;;-0.31;100.00;102432.91;837436;23;927;-54
2022/01/15 01:45:31;;;;;;;20.65;11.10;;;;;;;-0.31;100.00;102434.59;836360;23;1017;-51
2022/01/15 01:46:10;;;;;;;20.63;10.60;;;;;;;-0.31;100.00;102435.47;836079;23;1326;-53
2022/01/15 01:47:02;;;;;;;21.85;10.88;;;;;;;-0.30;100.00;102431.25;837747;23;971;-53
2022/01/15 01:47:31;;;;;;;21.27;11.48;;;;;;;-0.22;100.00;102438.69;837028;23;967;-54
2022/01/15 01:47:52;;;;;;;21.33;11.55;;;;;;;-0.19;100.00;102438.88;833808;23;966;-55
2022/01/15 01:48:12;;;;;;;21.27;11.63;;;;;;;-0.20;100.00;102431.06;833828;23;687;-53
2022/01/15 01:48:32;;;;;;;18.90;11.30;;;;;;;-0.22;100.00;102430.97;832651;23;904;-51
2022/01/15 01:48:55;;;;;;;19.00;11.67;;;;;;;-0.22;100.00;102435.25;834014;23;884;-52
2022/01/15 01:49:15;;;;;;;21.90;11.95;;;;;;;-0.26;100.00;102428.09;835539;23;4640;-55
2022/01/15 01:49:36;;;;;;;22.35;11.70;;;;;;;-0.26;100.00;102435.81;838463;23;1006;-52
2022/01/15 01:49:56;;;;;;;23.70;11.93;;;;;;;-0.27;100.00;102431.47;840222;23;840;-51
2022/01/15 01:50:19;;;;;;;23.33;12.10;;;;;;;-0.28;100.00;102430.53;839491;23;757;-53
2022/01/15 01:50:40;;;;;;;23.40;11.82;;;;;;;-0.28;100.00;102437.38;834129;23;1192;-54
2022/01/15 01:51:01;;;;;;;23.65;11.98;;;;;;;-0.26;100.00;102440.97;834630;23;899;-54
2022/01/15 01:51:27;;;;;;;23.47;12.50;;;;;;;-0.20;100.00;102436.22;830707;23;1325;-55
2022/01/15 01:51:48;;;;;;;23.45;12.60;;;;;;;-0.22;100.00;102438.69;829972;23;813;-52
2022/01/15 01:52:09;;;;;;;24.17;12.47;;;;;;;-0.21;100.00;102445.63;827910;23;4426;-55
2022/01/15 01:52:30;;;;;;;22.30;12.15;;;;;;;-0.22;100.00;102437.81;833084;23;923;-52
2022/01/15 01:52:54;;;;;;;21.90;11.98;;;;;;;-0.24;100.00;102440.25;837399;23;832;-53
2022/01/15 01:53:14;;;;;;;24.13;12.65;;;;;;;-0.24;100.00;102441.94;836760;23;932;-54
2022/01/15 01:53:35;;;;;;;22.87;12.70;;;;;;;-0.26;100.00;102440.97;837045;23;951;-54
2022/01/15 01:53:57;;;;;;;23.17;12.13;;;;;;;-0.23;100.00;102441.16;836404;23;1948;-53
2022/01/15 01:54:18;;;;;;;22.75;12.27;;;;;;;-0.18;100.00;102437.19;837020;23;907;-53
2022/01/15 01:54:38;;;;;;;23.48;12.52;;;;;;;-0.18;100.00;102439.75;837219;23;741;-52
2022/01/15 01:54:59;;;;;;;23.38;12.15;;;;;;;-0.14;100.00;102435.75;837125;23;828;-52
2022/01/15 01:55:22;;;;;;;21.23;11.77;;;;;;;-0.14;100.00;102440.88;836538;23;4472;-55
2022/01/15 01:55:43;;;;;;;21.48;11.98;;;;;;;-0.17;100.00;102439.00;834328;23;921;-53
2022/01/15 01:56:04;;;;;;;23.67;12.13;;;;;;;-0.16;100.00;102440.78;836530;23;872;-51
2022/01/15 01:56:25;;;;;;;24.08;12.25;;;;;;;-0.18;100.00;102440.69;837708;23;1018;-54
2022/01/15 01:56:47;;;;;;;20.10;11.55;;;;;;;-0.18;100.00;102435.53;837576;23;839;-51
2022/01/15 01:57:07;;;;;;;20.13;11.20;;;;;;;-0.18;100.00;102438.09;837965;23;1018;-51
2022/01/15 01:57:28;;;;;;;20.10;11.47;;;;;;;-0.15;100.00;102434.84;836746;23;1063;-52
2022/01/15 01:57:50;;;;;;;21.55;11.70;;;;;;;-0.14;100.00;102436.63;837480;23;871;-56
2022/01/15 01:58:10;;;;;;;20.77;11.32;;;;;;;-0.16;100.00;102435.63;837413;23;4327;-55
2022/01/15 01:58:31;;;;;;;21.17;11.53;;;;;;;-0.16;100.00;102438.22;837190;23;695;-52
2022/01/15 01:58:51;;;;;;;20.90;11.50;;;;;;;-0.16;100.00;102435.63;837407;23;944;-51
2022/01/15 01:59:13;;;;;;;20.50;11.20;;;;;;;-0.16;100.00;102438.22;837758;23;887;-53
2022/01/15 01:59:33;;;;;;;21.27;11.52;;;;;;;-0.15;100.00;102440.00;837235;23;936;-51
2022/01/15 01:59:54;;;;;;;20.55;11.20;;;;;;;-0.11;100.00;102431.72;837666;23;877;-51